sensor_id;sensor_type;location;lat;lon;timestamp;P1;durP1;ratioP1;P2;durP2;ratioP2
37297;SDS011;30517;51.932;4.278;2024-01-07T00:01:28;6.35;;;3.78;;
37297;SDS011;30517;51.932;4.278;2024-01-07T00:04:08;5.55;;;3.22;;
37297;SDS011;30517;51.932;4.278;2024-01-07T00:06:49;6.32;;;3.70;;
37297;SDS011;30517;51.932;4.278;2024-01-07T00:09:30;6.47;;;3.78;;
37297;SDS011;30517;51.932;4.278;2024-01-07T00:12:11;5.70;;;3.60;;
37297;SDS011;30517;51.932;4.278;2024-01-07T00:14:52;6.68;;;4.03;;
37297;SDS011;30517;51.932;4.278;2024-01-07T00:17:33;7.80;;;4.20;;
37297;SDS011;30517;51.932;4.278;2024-01-07T00:20:13;7.85;;;4.15;;
37297;SDS011;30517;51.932;4.278;2024-01-07T00:22:54;7.28;;;4.05;;
37297;SDS011;30517;51.932;4.278;2024-01-07T00:25:36;7.57;;;4.35;;
37297;SDS011;30517;51.932;4.278;2024-01-07T00:28:17;6.18;;;3.83;;
37297;SDS011;30517;51.932;4.278;2024-01-07T00:30:58;8.05;;;4.70;;
37297;SDS011;30517;51.932;4.278;2024-01-07T00:33:38;7.05;;;4.22;;
37297;SDS011;30517;51.932;4.278;2024-01-07T00:36:19;7.28;;;4.15;;
37297;SDS011;30517;51.932;4.278;2024-01-07T00:39:00;7.03;;;4.45;;
37297;SDS011;30517;51.932;4.278;2024-01-07T00:41:41;7.57;;;4.40;;
37297;SDS011;30517;51.932;4.278;2024-01-07T00:44:22;8.85;;;5.15;;
37297;SDS011;30517;51.932;4.278;2024-01-07T00:47:03;7.38;;;4.72;;
37297;SDS011;30517;51.932;4.278;2024-01-07T00:49:43;7.15;;;4.07;;
37297;SDS011;30517;51.932;4.278;2024-01-07T00:52:24;6.80;;;4.40;;
37297;SDS011;30517;51.932;4.278;2024-01-07T00:55:05;8.07;;;4.65;;
37297;SDS011;30517;51.932;4.278;2024-01-07T00:57:47;7.30;;;4.75;;
37297;SDS011;30517;51.932;4.278;2024-01-07T01:00:27;7.70;;;4.60;;
37297;SDS011;30517;51.932;4.278;2024-01-07T01:03:09;7.45;;;4.20;;
37297;SDS011;30517;51.932;4.278;2024-01-07T01:05:50;9.25;;;5.72;;
37297;SDS011;30517;51.932;4.278;2024-01-07T01:08:31;6.72;;;4.43;;
37297;SDS011;30517;51.932;4.278;2024-01-07T01:11:12;8.48;;;5.47;;
37297;SDS011;30517;51.932;4.278;2024-01-07T01:13:53;7.40;;;4.82;;
37297;SDS011;30517;51.932;4.278;2024-01-07T01:16:33;7.95;;;4.82;;
37297;SDS011;30517;51.932;4.278;2024-01-07T01:19:14;8.73;;;5.28;;
37297;SDS011;30517;51.932;4.278;2024-01-07T01:21:55;8.35;;;4.28;;
37297;SDS011;30517;51.932;4.278;2024-01-07T01:24:36;7.63;;;4.68;;
37297;SDS011;30517;51.932;4.278;2024-01-07T01:27:17;7.10;;;4.47;;
37297;SDS011;30517;51.932;4.278;2024-01-07T01:29:57;8.15;;;5.18;;
37297;SDS011;30517;51.932;4.278;2024-01-07T01:32:38;8.77;;;5.05;;
37297;SDS011;30517;51.932;4.278;2024-01-07T01:35:20;7.32;;;4.97;;
37297;SDS011;30517;51.932;4.278;2024-01-07T01:38:01;8.00;;;5.20;;
37297;SDS011;30517;51.932;4.278;2024-01-07T01:40:41;8.07;;;4.78;;
37297;SDS011;30517;51.932;4.278;2024-01-07T01:43:23;7.43;;;4.68;;
37297;SDS011;30517;51.932;4.278;2024-01-07T01:46:05;7.82;;;5.10;;
37297;SDS011;30517;51.932;4.278;2024-01-07T01:48:45;8.38;;;5.32;;
37297;SDS011;30517;51.932;4.278;2024-01-07T01:51:27;7.82;;;4.60;;
37297;SDS011;30517;51.932;4.278;2024-01-07T01:54:08;7.93;;;5.10;;
37297;SDS011;30517;51.932;4.278;2024-01-07T01:56:49;8.38;;;5.57;;
37297;SDS011;30517;51.932;4.278;2024-01-07T01:59:30;8.88;;;5.60;;
37297;SDS011;30517;51.932;4.278;2024-01-07T02:02:14;9.23;;;5.93;;
37297;SDS011;30517;51.932;4.278;2024-01-07T02:04:55;9.43;;;5.95;;
37297;SDS011;30517;51.932;4.278;2024-01-07T02:07:36;8.63;;;5.35;;
37297;SDS011;30517;51.932;4.278;2024-01-07T02:10:17;8.18;;;4.75;;
37297;SDS011;30517;51.932;4.278;2024-01-07T02:12:57;7.80;;;5.25;;
37297;SDS011;30517;51.932;4.278;2024-01-07T02:15:38;8.43;;;5.57;;
37297;SDS011;30517;51.932;4.278;2024-01-07T02:18:19;8.68;;;5.57;;
37297;SDS011;30517;51.932;4.278;2024-01-07T02:21:00;8.13;;;5.45;;
37297;SDS011;30517;51.932;4.278;2024-01-07T02:23:41;8.65;;;5.68;;
37297;SDS011;30517;51.932;4.278;2024-01-07T02:26:22;10.20;;;6.25;;
37297;SDS011;30517;51.932;4.278;2024-01-07T02:29:03;7.78;;;5.05;;
37297;SDS011;30517;51.932;4.278;2024-01-07T02:31:44;8.27;;;5.15;;
37297;SDS011;30517;51.932;4.278;2024-01-07T02:34:24;8.52;;;5.10;;
37297;SDS011;30517;51.932;4.278;2024-01-07T02:37:05;8.40;;;5.15;;
37297;SDS011;30517;51.932;4.278;2024-01-07T02:39:48;8.18;;;5.38;;
37297;SDS011;30517;51.932;4.278;2024-01-07T02:42:29;9.00;;;5.78;;
37297;SDS011;30517;51.932;4.278;2024-01-07T02:45:12;8.60;;;5.53;;
37297;SDS011;30517;51.932;4.278;2024-01-07T02:47:53;8.10;;;5.32;;
37297;SDS011;30517;51.932;4.278;2024-01-07T02:50:34;9.68;;;5.80;;
37297;SDS011;30517;51.932;4.278;2024-01-07T02:53:15;9.05;;;6.00;;
37297;SDS011;30517;51.932;4.278;2024-01-07T02:55:56;7.65;;;5.22;;
37297;SDS011;30517;51.932;4.278;2024-01-07T02:58:37;9.05;;;6.32;;
37297;SDS011;30517;51.932;4.278;2024-01-07T03:01:20;12.15;;;5.97;;
37297;SDS011;30517;51.932;4.278;2024-01-07T03:04:06;9.90;;;5.95;;
37297;SDS011;30517;51.932;4.278;2024-01-07T03:06:48;10.07;;;6.15;;
37297;SDS011;30517;51.932;4.278;2024-01-07T03:09:31;7.43;;;5.25;;
37297;SDS011;30517;51.932;4.278;2024-01-07T03:14:56;7.78;;;5.47;;
37297;SDS011;30517;51.932;4.278;2024-01-07T03:17:37;9.13;;;6.22;;
37297;SDS011;30517;51.932;4.278;2024-01-07T03:20:18;8.45;;;5.63;;
37297;SDS011;30517;51.932;4.278;2024-01-07T03:23:01;10.20;;;6.40;;
37297;SDS011;30517;51.932;4.278;2024-01-07T03:25:42;9.30;;;5.72;;
37297;SDS011;30517;51.932;4.278;2024-01-07T03:28:23;9.38;;;5.60;;
37297;SDS011;30517;51.932;4.278;2024-01-07T03:31:14;9.63;;;5.55;;
37297;SDS011;30517;51.932;4.278;2024-01-07T03:33:56;9.77;;;5.28;;
37297;SDS011;30517;51.932;4.278;2024-01-07T03:36:37;9.40;;;5.90;;
37297;SDS011;30517;51.932;4.278;2024-01-07T03:39:18;9.98;;;5.90;;
37297;SDS011;30517;51.932;4.278;2024-01-07T03:41:59;9.20;;;6.13;;
37297;SDS011;30517;51.932;4.278;2024-01-07T03:44:40;10.35;;;6.10;;
37297;SDS011;30517;51.932;4.278;2024-01-07T03:47:21;9.00;;;5.85;;
37297;SDS011;30517;51.932;4.278;2024-01-07T03:50:02;8.80;;;5.65;;
37297;SDS011;30517;51.932;4.278;2024-01-07T03:52:46;8.50;;;5.60;;
37297;SDS011;30517;51.932;4.278;2024-01-07T03:55:26;8.98;;;5.53;;
37297;SDS011;30517;51.932;4.278;2024-01-07T03:58:07;8.98;;;6.03;;
37297;SDS011;30517;51.932;4.278;2024-01-07T04:00:48;10.63;;;6.45;;
37297;SDS011;30517;51.932;4.278;2024-01-07T04:03:29;8.38;;;5.63;;
37297;SDS011;30517;51.932;4.278;2024-01-07T04:06:10;9.75;;;6.20;;
37297;SDS011;30517;51.932;4.278;2024-01-07T04:08:51;9.02;;;5.45;;
37297;SDS011;30517;51.932;4.278;2024-01-07T04:11:32;8.27;;;5.15;;
37297;SDS011;30517;51.932;4.278;2024-01-07T04:14:16;7.97;;;5.25;;
37297;SDS011;30517;51.932;4.278;2024-01-07T04:16:56;8.07;;;5.13;;
37297;SDS011;30517;51.932;4.278;2024-01-07T04:19:37;7.20;;;5.15;;
37297;SDS011;30517;51.932;4.278;2024-01-07T04:22:18;8.65;;;5.63;;
37297;SDS011;30517;51.932;4.278;2024-01-07T04:24:59;10.45;;;6.68;;
37297;SDS011;30517;51.932;4.278;2024-01-07T04:27:40;8.63;;;5.13;;
37297;SDS011;30517;51.932;4.278;2024-01-07T04:30:21;8.27;;;5.80;;
37297;SDS011;30517;51.932;4.278;2024-01-07T04:33:01;7.95;;;5.20;;
37297;SDS011;30517;51.932;4.278;2024-01-07T04:35:44;8.50;;;5.53;;
37297;SDS011;30517;51.932;4.278;2024-01-07T04:38:24;8.65;;;5.65;;
37297;SDS011;30517;51.932;4.278;2024-01-07T04:41:05;9.60;;;5.72;;
37297;SDS011;30517;51.932;4.278;2024-01-07T04:43:47;8.05;;;5.38;;
37297;SDS011;30517;51.932;4.278;2024-01-07T04:46:28;7.80;;;5.38;;
37297;SDS011;30517;51.932;4.278;2024-01-07T04:49:09;8.38;;;5.82;;
37297;SDS011;30517;51.932;4.278;2024-01-07T04:51:49;9.55;;;5.63;;
37297;SDS011;30517;51.932;4.278;2024-01-07T04:54:30;7.50;;;5.18;;
37297;SDS011;30517;51.932;4.278;2024-01-07T04:57:11;8.88;;;5.78;;
37297;SDS011;30517;51.932;4.278;2024-01-07T04:59:52;9.07;;;5.40;;
37297;SDS011;30517;51.932;4.278;2024-01-07T05:02:33;9.88;;;6.30;;
37297;SDS011;30517;51.932;4.278;2024-01-07T05:05:14;8.30;;;5.47;;
37297;SDS011;30517;51.932;4.278;2024-01-07T05:07:55;8.27;;;5.28;;
37297;SDS011;30517;51.932;4.278;2024-01-07T05:10:39;10.00;;;6.72;;
37297;SDS011;30517;51.932;4.278;2024-01-07T05:13:19;9.45;;;6.22;;
37297;SDS011;30517;51.932;4.278;2024-01-07T05:16:00;9.40;;;6.07;;
37297;SDS011;30517;51.932;4.278;2024-01-07T05:18:42;10.13;;;5.93;;
37297;SDS011;30517;51.932;4.278;2024-01-07T05:21:28;10.40;;;6.20;;
37297;SDS011;30517;51.932;4.278;2024-01-07T05:24:09;9.85;;;6.78;;
37297;SDS011;30517;51.932;4.278;2024-01-07T05:26:50;9.15;;;6.40;;
37297;SDS011;30517;51.932;4.278;2024-01-07T05:29:31;10.20;;;6.78;;
37297;SDS011;30517;51.932;4.278;2024-01-07T05:32:15;9.27;;;6.53;;
37297;SDS011;30517;51.932;4.278;2024-01-07T05:34:55;10.48;;;6.55;;
37297;SDS011;30517;51.932;4.278;2024-01-07T05:37:36;10.40;;;6.57;;
37297;SDS011;30517;51.932;4.278;2024-01-07T05:40:17;11.55;;;6.85;;
37297;SDS011;30517;51.932;4.278;2024-01-07T05:42:58;9.52;;;6.00;;
37297;SDS011;30517;51.932;4.278;2024-01-07T05:45:39;10.05;;;6.18;;
37297;SDS011;30517;51.932;4.278;2024-01-07T05:48:23;9.38;;;6.13;;
37297;SDS011;30517;51.932;4.278;2024-01-07T05:51:03;9.95;;;6.68;;
37297;SDS011;30517;51.932;4.278;2024-01-07T05:53:44;9.38;;;6.03;;
37297;SDS011;30517;51.932;4.278;2024-01-07T05:56:26;9.55;;;6.20;;
37297;SDS011;30517;51.932;4.278;2024-01-07T05:59:07;11.13;;;7.05;;
37297;SDS011;30517;51.932;4.278;2024-01-07T06:01:48;8.68;;;6.00;;
37297;SDS011;30517;51.932;4.278;2024-01-07T06:04:29;9.32;;;6.00;;
37297;SDS011;30517;51.932;4.278;2024-01-07T06:07:10;9.82;;;6.20;;
37297;SDS011;30517;51.932;4.278;2024-01-07T06:09:50;10.95;;;7.40;;
37297;SDS011;30517;51.932;4.278;2024-01-07T06:12:31;9.55;;;6.22;;
37297;SDS011;30517;51.932;4.278;2024-01-07T06:15:12;9.68;;;6.22;;
37297;SDS011;30517;51.932;4.278;2024-01-07T06:17:53;10.00;;;6.25;;
37297;SDS011;30517;51.932;4.278;2024-01-07T06:20:34;9.00;;;6.43;;
37297;SDS011;30517;51.932;4.278;2024-01-07T06:23:15;8.60;;;5.82;;
37297;SDS011;30517;51.932;4.278;2024-01-07T06:25:56;10.50;;;6.82;;
37297;SDS011;30517;51.932;4.278;2024-01-07T06:28:36;10.82;;;6.40;;
37297;SDS011;30517;51.932;4.278;2024-01-07T06:31:17;9.73;;;6.20;;
37297;SDS011;30517;51.932;4.278;2024-01-07T06:33:58;8.98;;;5.95;;
37297;SDS011;30517;51.932;4.278;2024-01-07T06:36:39;8.48;;;5.70;;
37297;SDS011;30517;51.932;4.278;2024-01-07T06:39:21;9.63;;;5.57;;
37297;SDS011;30517;51.932;4.278;2024-01-07T06:42:02;10.70;;;6.93;;
37297;SDS011;30517;51.932;4.278;2024-01-07T06:44:43;11.10;;;7.22;;
37297;SDS011;30517;51.932;4.278;2024-01-07T06:47:24;10.02;;;6.70;;
37297;SDS011;30517;51.932;4.278;2024-01-07T06:50:05;11.15;;;7.25;;
37297;SDS011;30517;51.932;4.278;2024-01-07T06:52:46;9.27;;;6.40;;
37297;SDS011;30517;51.932;4.278;2024-01-07T06:55:27;9.20;;;6.28;;
37297;SDS011;30517;51.932;4.278;2024-01-07T06:58:08;10.50;;;6.57;;
37297;SDS011;30517;51.932;4.278;2024-01-07T07:00:49;10.70;;;7.13;;
37297;SDS011;30517;51.932;4.278;2024-01-07T07:03:30;9.65;;;6.60;;
37297;SDS011;30517;51.932;4.278;2024-01-07T07:06:11;11.60;;;7.68;;
37297;SDS011;30517;51.932;4.278;2024-01-07T07:08:52;13.48;;;7.70;;
37297;SDS011;30517;51.932;4.278;2024-01-07T07:11:33;12.20;;;7.60;;
37297;SDS011;30517;51.932;4.278;2024-01-07T07:14:14;10.00;;;6.15;;
37297;SDS011;30517;51.932;4.278;2024-01-07T07:16:55;10.25;;;6.88;;
37297;SDS011;30517;51.932;4.278;2024-01-07T07:19:36;11.45;;;7.80;;
37297;SDS011;30517;51.932;4.278;2024-01-07T07:22:17;11.25;;;7.20;;
37297;SDS011;30517;51.932;4.278;2024-01-07T07:24:58;9.68;;;6.57;;
37297;SDS011;30517;51.932;4.278;2024-01-07T07:27:38;10.60;;;6.88;;
37297;SDS011;30517;51.932;4.278;2024-01-07T07:30:19;9.75;;;6.78;;
37297;SDS011;30517;51.932;4.278;2024-01-07T07:33:00;10.20;;;6.63;;
37297;SDS011;30517;51.932;4.278;2024-01-07T07:35:42;10.70;;;7.32;;
37297;SDS011;30517;51.932;4.278;2024-01-07T07:38:23;11.32;;;7.57;;
37297;SDS011;30517;51.932;4.278;2024-01-07T07:41:03;11.38;;;7.60;;
37297;SDS011;30517;51.932;4.278;2024-01-07T07:43:45;10.45;;;7.35;;
37297;SDS011;30517;51.932;4.278;2024-01-07T07:46:29;11.63;;;7.22;;
37297;SDS011;30517;51.932;4.278;2024-01-07T07:49:09;11.68;;;7.60;;
37297;SDS011;30517;51.932;4.278;2024-01-07T07:51:51;10.85;;;7.00;;
37297;SDS011;30517;51.932;4.278;2024-01-07T07:54:32;10.98;;;7.40;;
37297;SDS011;30517;51.932;4.278;2024-01-07T07:57:12;12.10;;;8.25;;
37297;SDS011;30517;51.932;4.278;2024-01-07T07:59:53;11.13;;;7.10;;
37297;SDS011;30517;51.932;4.278;2024-01-07T08:02:35;11.23;;;7.20;;
37297;SDS011;30517;51.932;4.278;2024-01-07T08:05:16;10.98;;;7.20;;
37297;SDS011;30517;51.932;4.278;2024-01-07T08:07:56;10.95;;;7.28;;
37297;SDS011;30517;51.932;4.278;2024-01-07T08:10:37;11.90;;;7.40;;
37297;SDS011;30517;51.932;4.278;2024-01-07T08:13:18;10.77;;;7.60;;
37297;SDS011;30517;51.932;4.278;2024-01-07T08:15:59;11.82;;;7.70;;
37297;SDS011;30517;51.932;4.278;2024-01-07T08:18:40;10.70;;;6.63;;
37297;SDS011;30517;51.932;4.278;2024-01-07T08:21:22;11.55;;;7.43;;
37297;SDS011;30517;51.932;4.278;2024-01-07T08:24:03;10.60;;;7.10;;
37297;SDS011;30517;51.932;4.278;2024-01-07T08:26:44;11.18;;;7.10;;
37297;SDS011;30517;51.932;4.278;2024-01-07T08:29:25;10.30;;;6.47;;
37297;SDS011;30517;51.932;4.278;2024-01-07T08:32:06;11.27;;;7.03;;
37297;SDS011;30517;51.932;4.278;2024-01-07T08:34:48;11.82;;;7.63;;
37297;SDS011;30517;51.932;4.278;2024-01-07T08:37:29;9.43;;;6.82;;
37297;SDS011;30517;51.932;4.278;2024-01-07T08:40:09;10.52;;;6.72;;
37297;SDS011;30517;51.932;4.278;2024-01-07T08:42:51;10.93;;;7.65;;
37297;SDS011;30517;51.932;4.278;2024-01-07T08:45:32;11.38;;;7.70;;
37297;SDS011;30517;51.932;4.278;2024-01-07T08:48:13;10.32;;;7.15;;
37297;SDS011;30517;51.932;4.278;2024-01-07T08:50:53;9.15;;;6.13;;
37297;SDS011;30517;51.932;4.278;2024-01-07T08:53:34;10.07;;;6.95;;
37297;SDS011;30517;51.932;4.278;2024-01-07T08:56:15;11.57;;;6.95;;
37297;SDS011;30517;51.932;4.278;2024-01-07T08:58:56;10.38;;;6.75;;
37297;SDS011;30517;51.932;4.278;2024-01-07T09:01:38;10.18;;;7.13;;
37297;SDS011;30517;51.932;4.278;2024-01-07T09:04:19;10.70;;;6.47;;
37297;SDS011;30517;51.932;4.278;2024-01-07T09:07:00;10.27;;;6.63;;
37297;SDS011;30517;51.932;4.278;2024-01-07T09:09:41;11.48;;;6.63;;
37297;SDS011;30517;51.932;4.278;2024-01-07T09:12:22;9.93;;;6.57;;
37297;SDS011;30517;51.932;4.278;2024-01-07T09:15:04;11.15;;;6.95;;
37297;SDS011;30517;51.932;4.278;2024-01-07T09:17:47;10.27;;;7.00;;
37297;SDS011;30517;51.932;4.278;2024-01-07T09:20:28;10.07;;;6.15;;
37297;SDS011;30517;51.932;4.278;2024-01-07T09:23:09;11.13;;;7.40;;
37297;SDS011;30517;51.932;4.278;2024-01-07T09:25:50;9.10;;;6.28;;
37297;SDS011;30517;51.932;4.278;2024-01-07T09:28:31;10.57;;;6.90;;
37297;SDS011;30517;51.932;4.278;2024-01-07T09:31:12;9.90;;;6.70;;
37297;SDS011;30517;51.932;4.278;2024-01-07T09:33:52;12.00;;;6.43;;
37297;SDS011;30517;51.932;4.278;2024-01-07T09:36:33;9.23;;;6.15;;
37297;SDS011;30517;51.932;4.278;2024-01-07T09:39:15;9.30;;;5.88;;
37297;SDS011;30517;51.932;4.278;2024-01-07T09:41:56;10.43;;;6.82;;
37297;SDS011;30517;51.932;4.278;2024-01-07T09:44:37;9.80;;;6.53;;
37297;SDS011;30517;51.932;4.278;2024-01-07T09:47:18;10.82;;;6.53;;
37297;SDS011;30517;51.932;4.278;2024-01-07T09:50:00;9.07;;;6.57;;
37297;SDS011;30517;51.932;4.278;2024-01-07T09:52:44;9.75;;;6.03;;
37297;SDS011;30517;51.932;4.278;2024-01-07T09:55:27;11.55;;;6.45;;
37297;SDS011;30517;51.932;4.278;2024-01-07T09:58:18;9.68;;;6.50;;
37297;SDS011;30517;51.932;4.278;2024-01-07T10:00:59;11.18;;;6.10;;
37297;SDS011;30517;51.932;4.278;2024-01-07T10:03:40;9.98;;;6.13;;
37297;SDS011;30517;51.932;4.278;2024-01-07T10:06:21;9.00;;;6.13;;
37297;SDS011;30517;51.932;4.278;2024-01-07T10:09:02;9.93;;;6.05;;
37297;SDS011;30517;51.932;4.278;2024-01-07T10:11:43;9.52;;;6.05;;
37297;SDS011;30517;51.932;4.278;2024-01-07T10:14:24;9.15;;;5.88;;
37297;SDS011;30517;51.932;4.278;2024-01-07T10:17:15;9.55;;;6.07;;
37297;SDS011;30517;51.932;4.278;2024-01-07T10:19:57;10.30;;;6.30;;
37297;SDS011;30517;51.932;4.278;2024-01-07T10:22:38;8.88;;;5.95;;
37297;SDS011;30517;51.932;4.278;2024-01-07T10:25:19;10.35;;;5.90;;
37297;SDS011;30517;51.932;4.278;2024-01-07T10:28:00;8.43;;;5.43;;
37297;SDS011;30517;51.932;4.278;2024-01-07T10:30:41;8.32;;;5.82;;
37297;SDS011;30517;51.932;4.278;2024-01-07T10:33:33;9.40;;;5.82;;
37297;SDS011;30517;51.932;4.278;2024-01-07T10:36:14;9.70;;;5.75;;
37297;SDS011;30517;51.932;4.278;2024-01-07T10:38:54;10.57;;;6.88;;
37297;SDS011;30517;51.932;4.278;2024-01-07T10:41:35;8.32;;;5.70;;
37297;SDS011;30517;51.932;4.278;2024-01-07T10:44:17;9.57;;;5.93;;
37297;SDS011;30517;51.932;4.278;2024-01-07T10:46:59;9.27;;;5.53;;
37297;SDS011;30517;51.932;4.278;2024-01-07T10:49:40;10.00;;;5.95;;
37297;SDS011;30517;51.932;4.278;2024-01-07T10:52:28;9.20;;;6.22;;
37297;SDS011;30517;51.932;4.278;2024-01-07T10:55:09;10.70;;;6.82;;
37297;SDS011;30517;51.932;4.278;2024-01-07T10:57:51;9.25;;;5.72;;
37297;SDS011;30517;51.932;4.278;2024-01-07T11:00:34;7.83;;;5.40;;
37297;SDS011;30517;51.932;4.278;2024-01-07T11:03:28;8.45;;;5.63;;
37297;SDS011;30517;51.932;4.278;2024-01-07T11:06:22;9.35;;;6.00;;
37297;SDS011;30517;51.932;4.278;2024-01-07T11:09:06;10.52;;;5.85;;
37297;SDS011;30517;51.932;4.278;2024-01-07T11:11:59;8.00;;;5.40;;
37297;SDS011;30517;51.932;4.278;2024-01-07T11:14:41;9.55;;;6.22;;
37297;SDS011;30517;51.932;4.278;2024-01-07T11:20:14;8.63;;;5.65;;
37297;SDS011;30517;51.932;4.278;2024-01-07T11:26:08;8.95;;;5.80;;
37297;SDS011;30517;51.932;4.278;2024-01-07T11:28:56;8.43;;;4.80;;
37297;SDS011;30517;51.932;4.278;2024-01-07T11:37:23;9.70;;;5.78;;
37297;SDS011;30517;51.932;4.278;2024-01-07T11:40:05;10.07;;;5.18;;
37297;SDS011;30517;51.932;4.278;2024-01-07T11:42:47;8.18;;;5.43;;
37297;SDS011;30517;51.932;4.278;2024-01-07T11:45:28;7.88;;;5.20;;
37297;SDS011;30517;51.932;4.278;2024-01-07T11:48:09;7.90;;;5.28;;
37297;SDS011;30517;51.932;4.278;2024-01-07T11:50:50;8.52;;;5.18;;
37297;SDS011;30517;51.932;4.278;2024-01-07T11:53:31;8.98;;;5.43;;
37297;SDS011;30517;51.932;4.278;2024-01-07T11:56:14;9.55;;;5.47;;
37297;SDS011;30517;51.932;4.278;2024-01-07T11:58:55;8.02;;;4.82;;
37297;SDS011;30517;51.932;4.278;2024-01-07T12:01:39;7.18;;;4.97;;
37297;SDS011;30517;51.932;4.278;2024-01-07T12:04:20;10.32;;;5.00;;
37297;SDS011;30517;51.932;4.278;2024-01-07T12:07:01;8.18;;;5.15;;
37297;SDS011;30517;51.932;4.278;2024-01-07T12:09:43;7.32;;;4.55;;
37297;SDS011;30517;51.932;4.278;2024-01-07T12:12:24;8.77;;;5.15;;
37297;SDS011;30517;51.932;4.278;2024-01-07T12:15:06;8.32;;;5.15;;
37297;SDS011;30517;51.932;4.278;2024-01-07T12:17:54;7.32;;;4.65;;
37297;SDS011;30517;51.932;4.278;2024-01-07T12:20:37;7.72;;;4.85;;
37297;SDS011;30517;51.932;4.278;2024-01-07T12:23:18;6.55;;;4.38;;
37297;SDS011;30517;51.932;4.278;2024-01-07T12:25:59;7.60;;;4.53;;
37297;SDS011;30517;51.932;4.278;2024-01-07T12:28:54;8.00;;;5.13;;
37297;SDS011;30517;51.932;4.278;2024-01-07T12:31:37;6.68;;;4.72;;
37297;SDS011;30517;51.932;4.278;2024-01-07T12:34:20;6.88;;;3.70;;
37297;SDS011;30517;51.932;4.278;2024-01-07T12:37:03;7.57;;;5.18;;
37297;SDS011;30517;51.932;4.278;2024-01-07T12:39:44;7.90;;;4.25;;
37297;SDS011;30517;51.932;4.278;2024-01-07T12:42:25;10.27;;;5.22;;
37297;SDS011;30517;51.932;4.278;2024-01-07T12:45:06;6.60;;;3.67;;
37297;SDS011;30517;51.932;4.278;2024-01-07T12:47:47;6.25;;;4.18;;
37297;SDS011;30517;51.932;4.278;2024-01-07T12:50:28;5.68;;;3.83;;
37297;SDS011;30517;51.932;4.278;2024-01-07T12:53:11;6.13;;;3.40;;
37297;SDS011;30517;51.932;4.278;2024-01-07T12:55:52;7.63;;;4.18;;
37297;SDS011;30517;51.932;4.278;2024-01-07T12:58:33;6.65;;;4.15;;
37297;SDS011;30517;51.932;4.278;2024-01-07T13:01:14;7.38;;;3.85;;
37297;SDS011;30517;51.932;4.278;2024-01-07T13:03:55;7.45;;;3.45;;
37297;SDS011;30517;51.932;4.278;2024-01-07T13:06:36;6.00;;;3.55;;
37297;SDS011;30517;51.932;4.278;2024-01-07T13:09:17;7.45;;;4.10;;
37297;SDS011;30517;51.932;4.278;2024-01-07T13:11:58;7.15;;;3.85;;
37297;SDS011;30517;51.932;4.278;2024-01-07T13:14:39;6.72;;;3.67;;
37297;SDS011;30517;51.932;4.278;2024-01-07T13:17:20;6.45;;;3.63;;
37297;SDS011;30517;51.932;4.278;2024-01-07T13:20:01;5.85;;;3.47;;
37297;SDS011;30517;51.932;4.278;2024-01-07T13:22:42;5.63;;;3.70;;
37297;SDS011;30517;51.932;4.278;2024-01-07T13:25:23;6.60;;;3.78;;
37297;SDS011;30517;51.932;4.278;2024-01-07T13:28:04;6.63;;;3.72;;
37297;SDS011;30517;51.932;4.278;2024-01-07T13:30:45;6.25;;;3.80;;
37297;SDS011;30517;51.932;4.278;2024-01-07T13:33:26;7.15;;;3.38;;
37297;SDS011;30517;51.932;4.278;2024-01-07T13:36:07;6.72;;;3.50;;
37297;SDS011;30517;51.932;4.278;2024-01-07T13:38:50;5.47;;;3.15;;
37297;SDS011;30517;51.932;4.278;2024-01-07T13:41:31;5.00;;;3.22;;
37297;SDS011;30517;51.932;4.278;2024-01-07T13:44:12;5.53;;;3.15;;
37297;SDS011;30517;51.932;4.278;2024-01-07T13:46:57;5.75;;;3.20;;
37297;SDS011;30517;51.932;4.278;2024-01-07T13:49:38;5.85;;;3.65;;
37297;SDS011;30517;51.932;4.278;2024-01-07T13:52:19;6.38;;;3.85;;
37297;SDS011;30517;51.932;4.278;2024-01-07T13:55:00;5.53;;;3.20;;
37297;SDS011;30517;51.932;4.278;2024-01-07T13:57:41;5.32;;;3.17;;
37297;SDS011;30517;51.932;4.278;2024-01-07T14:00:21;5.43;;;3.35;;
37297;SDS011;30517;51.932;4.278;2024-01-07T14:03:03;4.75;;;2.88;;
37297;SDS011;30517;51.932;4.278;2024-01-07T14:05:44;5.13;;;2.88;;
37297;SDS011;30517;51.932;4.278;2024-01-07T14:08:25;4.80;;;2.72;;
37297;SDS011;30517;51.932;4.278;2024-01-07T14:11:06;3.67;;;2.17;;
37297;SDS011;30517;51.932;4.278;2024-01-07T14:13:48;5.32;;;3.03;;
37297;SDS011;30517;51.932;4.278;2024-01-07T14:16:28;5.60;;;2.50;;
37297;SDS011;30517;51.932;4.278;2024-01-07T14:19:09;4.88;;;2.53;;
37297;SDS011;30517;51.932;4.278;2024-01-07T14:21:50;4.57;;;2.50;;
37297;SDS011;30517;51.932;4.278;2024-01-07T14:24:32;4.93;;;2.55;;
37297;SDS011;30517;51.932;4.278;2024-01-07T14:27:14;5.22;;;2.72;;
37297;SDS011;30517;51.932;4.278;2024-01-07T14:29:55;3.72;;;2.25;;
37297;SDS011;30517;51.932;4.278;2024-01-07T14:32:36;3.80;;;2.10;;
37297;SDS011;30517;51.932;4.278;2024-01-07T14:35:17;4.93;;;2.50;;
37297;SDS011;30517;51.932;4.278;2024-01-07T14:37:58;4.55;;;2.28;;
37297;SDS011;30517;51.932;4.278;2024-01-07T14:40:40;4.38;;;2.30;;
37297;SDS011;30517;51.932;4.278;2024-01-07T14:43:24;4.90;;;2.25;;
37297;SDS011;30517;51.932;4.278;2024-01-07T14:46:08;4.43;;;2.20;;
37297;SDS011;30517;51.932;4.278;2024-01-07T14:48:49;4.35;;;2.00;;
37297;SDS011;30517;51.932;4.278;2024-01-07T14:51:30;4.45;;;2.33;;
37297;SDS011;30517;51.932;4.278;2024-01-07T14:54:11;4.70;;;2.40;;
37297;SDS011;30517;51.932;4.278;2024-01-07T14:56:52;6.93;;;2.38;;
37297;SDS011;30517;51.932;4.278;2024-01-07T14:59:34;5.10;;;2.50;;
37297;SDS011;30517;51.932;4.278;2024-01-07T15:02:18;4.88;;;1.70;;
37297;SDS011;30517;51.932;4.278;2024-01-07T15:04:58;3.58;;;1.90;;
37297;SDS011;30517;51.932;4.278;2024-01-07T15:07:39;3.30;;;1.90;;
37297;SDS011;30517;51.932;4.278;2024-01-07T15:10:20;3.55;;;1.88;;
37297;SDS011;30517;51.932;4.278;2024-01-07T15:13:01;4.47;;;2.10;;
37297;SDS011;30517;51.932;4.278;2024-01-07T15:15:43;3.90;;;2.17;;
37297;SDS011;30517;51.932;4.278;2024-01-07T15:18:23;3.67;;;2.00;;
37297;SDS011;30517;51.932;4.278;2024-01-07T15:21:04;3.35;;;1.63;;
37297;SDS011;30517;51.932;4.278;2024-01-07T15:23:46;3.63;;;2.03;;
37297;SDS011;30517;51.932;4.278;2024-01-07T15:26:26;5.13;;;2.00;;
37297;SDS011;30517;51.932;4.278;2024-01-07T15:29:07;3.67;;;2.20;;
37297;SDS011;30517;51.932;4.278;2024-01-07T15:31:48;4.20;;;2.10;;
37297;SDS011;30517;51.932;4.278;2024-01-07T15:34:29;5.72;;;2.00;;
37297;SDS011;30517;51.932;4.278;2024-01-07T15:37:10;3.95;;;2.15;;
37297;SDS011;30517;51.932;4.278;2024-01-07T15:39:51;3.78;;;2.00;;
37297;SDS011;30517;51.932;4.278;2024-01-07T15:42:32;5.63;;;2.17;;
37297;SDS011;30517;51.932;4.278;2024-01-07T15:45:13;4.60;;;2.13;;
37297;SDS011;30517;51.932;4.278;2024-01-07T15:47:53;4.35;;;2.08;;
37297;SDS011;30517;51.932;4.278;2024-01-07T15:50:34;3.25;;;1.83;;
37297;SDS011;30517;51.932;4.278;2024-01-07T15:53:15;3.08;;;1.67;;
37297;SDS011;30517;51.932;4.278;2024-01-07T15:55:56;3.53;;;1.95;;
37297;SDS011;30517;51.932;4.278;2024-01-07T15:58:37;3.63;;;2.03;;
37297;SDS011;30517;51.932;4.278;2024-01-07T16:01:18;3.67;;;1.88;;
37297;SDS011;30517;51.932;4.278;2024-01-07T16:03:59;3.42;;;1.70;;
37297;SDS011;30517;51.932;4.278;2024-01-07T16:06:40;3.13;;;1.80;;
37297;SDS011;30517;51.932;4.278;2024-01-07T16:09:22;4.13;;;1.80;;
37297;SDS011;30517;51.932;4.278;2024-01-07T16:12:03;4.07;;;1.60;;
37297;SDS011;30517;51.932;4.278;2024-01-07T16:14:44;2.75;;;1.60;;
37297;SDS011;30517;51.932;4.278;2024-01-07T16:17:27;3.30;;;1.70;;
37297;SDS011;30517;51.932;4.278;2024-01-07T16:20:08;3.72;;;1.75;;
37297;SDS011;30517;51.932;4.278;2024-01-07T16:22:51;3.83;;;1.85;;
37297;SDS011;30517;51.932;4.278;2024-01-07T16:25:32;3.95;;;1.85;;